Time;durP1;ratioP1;P1;durP2;ratioP2;P2;SDS_P1;SDS_P2;PMS_P1;PMS_P2;Temp;Humidity;BMP_temperature;BMP_pressure;BME280_temperature;BME280_humidity;BME280_pressure;Samples;Min_cycle;Max_cycle;Signal;HPM_P1;HPM_P2
2024/02/01 00:00:40;;;;;;;34.10;14.57;;;;;;;-3.42;100.00;98726.50;5055494;28;20036;-77
2024/02/01 00:03:06;;;;;;;33.88;13.98;;;;;;;-3.35;100.00;98734.44;5068515;28;20058;-77
2024/02/01 00:05:31;;;;;;;38.22;13.60;;;;;;;-3.48;100.00;98705.53;5092559;28;20020;-76
2024/02/01 00:07:57;;;;;;;29.55;12.35;;;;;;;-3.45;100.00;98713.41;5055657;28;20111;-77
2024/02/01 00:10:23;;;;;;;24.77;11.05;;;;;;;-3.51;100.00;98705.50;5073640;28;20453;-76
2024/02/01 00:12:48;;;;;;;23.30;10.30;;;;;;;-3.39;100.00;98721.31;5071992;28;20024;-77
2024/02/01 00:15:14;;;;;;;19.10;9.18;;;;;;;-3.39;100.00;98721.31;5060726;28;20150;-76
2024/02/01 00:17:40;;;;;;;32.47;11.82;;;;;;;-3.40;100.00;98715.22;5092427;28;20478;-76
2024/02/01 00:20:06;;;;;;;28.70;11.45;;;;;;;-3.40;100.00;98714.31;5075755;28;20045;-77
2024/02/01 00:22:32;;;;;;;24.65;10.35;;;;;;;-3.47;100.00;98708.13;5075546;28;20028;-76
2024/02/01 00:24:59;;;;;;;22.42;10.57;;;;;;;-3.51;100.00;98702.88;5063907;28;20047;-77
2024/02/01 00:27:25;;;;;;;25.88;11.05;;;;;;;-3.44;100.00;98702.94;5055374;28;20036;-75
2024/02/01 00:29:50;;;;;;;23.63;10.18;;;;;;;-3.47;100.00;98702.03;5072193;28;20108;-78
2024/02/01 00:32:16;;;;;;;29.83;11.25;;;;;;;-3.63;100.00;98693.13;5055233;28;20510;-77
2024/02/01 00:34:45;;;;;;;22.83;10.80;;;;;;;-3.51;100.00;98700.25;5072787;28;20047;-78
2024/02/01 00:37:11;;;;;;;25.95;11.45;;;;;;;-3.45;100.00;98702.94;5061773;28;20425;-76
2024/02/01 00:39:37;;;;;;;27.23;10.73;;;;;;;-3.46;100.00;98698.56;5076968;28;20039;-77
2024/02/01 00:42:02;;;;;;;22.02;10.30;;;;;;;-3.48;100.00;98682.00;5079080;28;20107;-77
2024/02/01 00:44:28;;;;;;;24.65;11.40;;;;;;;-3.33;100.00;98700.47;5077910;28;20033;-78
2024/02/01 00:46:54;;;;;;;29.25;11.38;;;;;;;-3.26;100.00;98702.25;5078402;28;20024;-78
2024/02/01 00:49:19;;;;;;;28.70;12.48;;;;;;;-3.30;100.00;98697.88;5079991;28;20475;-77
2024/02/01 00:51:45;;;;;;;27.45;11.93;;;;;;;-3.34;100.00;98693.47;5077731;28;20020;-76
2024/02/01 00:54:10;;;;;;;32.65;14.40;;;;;;;-3.31;100.00;98694.38;5078248;28;20024;-78
2024/02/01 00:56:36;;;;;;;37.67;14.90;;;;;;;-3.34;100.00;98691.72;5075670;28;20483;-77
2024/02/01 00:59:02;;;;;;;42.15;16.70;;;;;;;-3.28;100.00;98701.38;5090229;28;20027;-77
2024/02/01 01:01:27;;;;;;;44.15;19.10;;;;;;;-3.35;100.00;98696.94;5057703;28;20032;-77
2024/02/01 01:03:54;;;;;;;53.78;22.38;;;;;;;-3.40;100.00;98698.63;5055440;28;20518;-78
2024/02/01 01:06:20;;;;;;;59.72;22.73;;;;;;;-3.41;100.00;98695.13;5059467;28;20056;-76
2024/02/01 01:08:46;;;;;;;39.45;16.35;;;;;;;-3.54;100.00;98688.03;5058180;28;20032;-77
2024/02/01 01:11:11;;;;;;;42.20;16.10;;;;;;;-3.49;100.00;98698.53;5071129;28;20071;-78
2024/02/01 01:13:37;;;;;;;32.67;13.82;;;;;;;-3.54;100.00;98692.38;5054730;28;20044;-77
2024/02/01 01:16:03;;;;;;;30.30;12.93;;;;;;;-3.61;100.00;98687.94;5063968;28;20024;-78
2024/02/01 01:18:28;;;;;;;36.85;13.85;;;;;;;-3.62;100.00;98687.03;5068073;28;20044;-76
2024/02/01 01:20:57;;;;;;;40.38;16.30;;;;;;;-3.74;100.00;98680.78;5074167;28;20093;-77
2024/02/01 01:23:22;;;;;;;42.08;16.15;;;;;;;-3.74;100.00;98670.34;5074178;28;20472;-77
2024/02/01 01:25:48;;;;;;;46.47;17.67;;;;;;;-3.81;100.00;98660.69;5074252;28;20144;-76
2024/02/01 01:28:13;;;;;;;45.10;17.02;;;;;;;-3.82;100.00;98662.41;5054014;28;20029;-77
2024/02/01 01:30:39;;;;;;;50.33;19.23;;;;;;;-3.92;100.00;98650.97;5085830;28;20032;-76
2024/02/01 01:33:06;;;;;;;39.30;15.98;;;;;;;-3.80;100.00;98665.91;5074592;28;20052;-78
2024/02/01 01:35:31;;;;;;;39.45;13.68;;;;;;;-3.81;100.00;98663.31;5073814;28;20115;-78
2024/02/01 01:37:57;;;;;;;38.22;13.05;;;;;;;-3.86;100.00;98663.22;5074165;28;20051;-78
2024/02/01 01:40:24;;;;;;;36.65;14.20;;;;;;;-3.97;100.00;98651.78;5072862;28;20475;-78
2024/02/01 01:42:50;;;;;;;29.20;12.23;;;;;;;-4.05;100.00;98649.06;5067285;28;20100;-78
2024/02/01 01:45:16;;;;;;;31.73;11.43;;;;;;;-4.03;100.00;98657.78;5056738;28;20488;-78
2024/02/01 01:47:42;;;;;;;31.13;12.52;;;;;;;-4.14;100.00;98654.16;5065613;28;20035;-78
2024/02/01 01:50:08;;;;;;;32.78;14.40;;;;;;;-4.21;100.00;98647.09;5074149;28;20118;-78
2024/02/01 01:52:36;;;;;;;30.92;12.93;;;;;;;-4.27;100.00;98643.50;5074202;28;20024;-78
2024/02/01 01:55:02;;;;;;;39.55;14.57;;;;;;;-4.20;100.00;98658.41;5073971;28;20038;-78
2024/02/01 01:57:28;;;;;;;37.63;14.93;;;;;;;-4.29;100.00;98643.50;5082226;28;20556;-78
2024/02/01 01:59:55;;;;;;;50.67;17.40;;;;;;;-4.43;100.00;98624.19;5090946;28;20024;-78
2024/02/01 02:02:21;;;;;;;43.58;16.30;;;;;;;-4.25;100.00;98644.44;5074434;28;20024;-78
2024/02/01 02:04:51;;;;;;;37.53;15.32;;;;;;;-4.40;100.00;98634.66;5074202;28;20028;-77
2024/02/01 02:07:16;;;;;;;53.83;16.52;;;;;;;-4.20;100.00;98650.59;5074278;28;20016;-76
2024/02/01 02:09:42;;;;;;;41.13;15.85;;;;;;;-4.24;100.00;98639.22;5073909;28;20406;-77
2024/02/01 02:12:08;;;;;;;54.33;17.52;;;;;;;-4.21;100.00;98628.81;5073582;28;20051;-78
2024/02/01 02:14:33;;;;;;;57.17;19.95;;;;;;;-4.08;100.00;98642.91;5074174;28;20186;-78
2024/02/01 02:16:59;;;;;;;53.63;19.17;;;;;;;-4.18;100.00;98631.47;5075084;28;20032;-78
2024/02/01 02:19:25;;;;;;;49.13;18.73;;;;;;;-4.17;100.00;98616.66;5078734;28;20348;-78
2024/02/01 02:21:52;;;;;;;50.30;18.30;;;;;;;-4.09;100.00;98626.34;5081039;28;20028;-77
2024/02/01 02:24:19;;;;;;;57.13;20.45;;;;;;;-4.04;100.00;98634.25;5076117;28;20441;-77
2024/02/01 02:26:46;;;;;;;56.58;19.35;;;;;;;-4.12;100.00;98628.94;5074920;28;20404;-78
2024/02/01 02:29:14;;;;;;;46.30;17.73;;;;;;;-4.13;100.00;98621.09;5074020;28;20024;-78
2024/02/01 02:31:44;;;;;;;52.42;19.35;;;;;;;-4.06;100.00;98630.75;5079191;28;20020;-78
2024/02/01 02:34:09;;;;;;;52.92;20.80;;;;;;;-4.09;100.00;98626.34;5063502;28;20107;-78
2024/02/01 02:36:35;;;;;;;67.57;21.88;;;;;;;-4.12;100.00;98621.09;5062881;28;20116;-79
2024/02/01 02:39:01;;;;;;;59.65;21.60;;;;;;;-4.09;100.00;98621.13;5069526;28;20025;-73
2024/02/01 02:41:27;;;;;;;63.15;22.73;;;;;;;-4.14;100.00;98625.44;5052994;28;20082;-87
2024/02/01 02:43:53;;;;;;;54.15;20.13;;;;;;;-4.39;100.00;98594.63;5056707;28;20094;-86
2024/02/01 02:46:18;;;;;;;43.72;16.58;;;;;;;-4.37;100.00;98613.81;5074064;28;20028;-86
2024/02/01 02:48:44;;;;;;;41.50;18.10;;;;;;;-4.38;100.00;98615.53;5073916;28;20121;-87
2024/02/01 02:51:11;;;;;;;42.42;17.00;;;;;;;-4.40;100.00;98596.34;5091960;28;20058;-87
2024/02/01 02:53:37;;;;;;;42.72;16.02;;;;;;;-4.50;100.00;98591.00;5074601;28;20024;-86
2024/02/01 02:56:06;;;;;;;43.88;17.23;;;;;;;-4.35;100.00;98627.75;5074564;28;20020;-87
2024/02/01 02:58:32;;;;;;;46.30;17.35;;;;;;;-4.49;100.00;98611.03;5075199;28;20024;-87
2024/02/01 03:00:57;;;;;;;53.88;20.20;;;;;;;-4.65;100.00;98583.84;5074894;28;20110;-87
2024/02/01 03:03:23;;;;;;;62.33;23.25;;;;;;;-4.71;100.00;98581.16;5075241;28;20031;-86
2024/02/01 03:05:49;;;;;;;67.07;25.38;;;;;;;-4.50;100.00;98601.44;5074981;28;20016;-88
2024/02/01 03:08:15;;;;;;;53.97;20.63;;;;;;;-4.57;100.00;98578.72;5075438;28;20035;-87
2024/02/01 03:10:42;;;;;;;51.50;21.15;;;;;;;-4.43;100.00;98598.06;5074123;28;20584;-86
2024/02/01 03:13:10;;;;;;;51.20;19.42;;;;;;;-4.51;100.00;98582.28;5063269;28;20039;-86
2024/02/01 03:15:39;;;;;;;47.28;20.33;;;;;;;-4.50;100.00;98583.16;5071127;28;20024;-89
2024/02/01 03:18:05;;;;;;;45.00;17.95;;;;;;;-4.49;100.00;98584.94;5072443;28;20127;-87
2024/02/01 03:20:32;;;;;;;32.92;13.23;;;;;;;-4.49;100.00;98585.78;5071060;28;20039;-89
2024/02/01 03:22:57;;;;;;;35.22;14.07;;;;;;;-4.56;100.00;98576.13;5074972;28;20024;-87
2024/02/01 03:25:28;;;;;;;33.05;12.32;;;;;;;-4.57;100.00;98581.31;5074166;28;20132;-86
2024/02/01 03:28:01;;;;;;;31.65;10.27;;;;;;;-4.57;100.00;98587.44;5073946;28;20506;-86
2024/02/01 03:30:31;;;;;;;31.58;12.27;;;;;;;-4.63;100.00;98589.06;5079916;28;20491;-88
2024/02/01 03:32:57;;;;;;;53.35;18.55;;;;;;;-4.70;100.00;98576.78;5079085;28;20028;-90
2024/02/01 03:35:23;;;;;;;40.83;14.82;;;;;;;-4.72;100.00;98573.28;5077587;28;20024;-86
2024/02/01 03:37:49;;;;;;;40.65;16.30;;;;;;;-4.67;100.00;98569.00;5077672;28;20135;-86
2024/02/01 03:40:19;;;;;;;34.95;13.70;;;;;;;-4.68;100.00;98557.72;5077912;28;20070;-86
2024/02/01 03:42:48;;;;;;;28.27;12.60;;;;;;;-4.63;100.00;98566.47;5095784;28;20024;-90
2024/02/01 03:45:14;;;;;;;32.80;13.10;;;;;;;-4.55;100.00;98574.38;5077960;28;20027;-84
2024/02/01 03:47:40;;;;;;;33.15;14.02;;;;;;;-4.55;100.00;98571.78;5078316;28;20028;-86
2024/02/01 03:50:08;;;;;;;33.83;13.38;;;;;;;-4.50;100.00;98560.56;5075156;28;20543;-87
2024/02/01 03:52:38;;;;;;;28.20;13.23;;;;;;;-4.62;100.00;98533.41;5077466;28;20526;-87
2024/02/01 03:55:16;;;;;;;39.22;13.60;;;;;;;-4.53;100.00;98549.19;5077199;28;20539;-87
2024/02/01 03:57:45;;;;;;;35.60;14.30;;;;;;;-4.49;100.00;98562.28;5068322;28;20036;-84
2024/02/01 04:00:30;;;;;;;32.20;13.82;;;;;;;-4.50;100.00;98544.91;5062084;28;20051;-83
2024/02/01 04:03:04;;;;;;;33.13;14.73;;;;;;;-4.48;100.00;98564.06;5058673;28;20051;-83
2024/02/01 04:05:37;;;;;;;37.55;13.70;;;;;;;-4.54;100.00;98556.16;5057011;28;20115;-83
2024/02/01 04:08:07;;;;;;;41.95;16.58;;;;;;;-4.55;100.00;98550.88;5060855;28;20035;-81
2024/02/01 04:10:37;;;;;;;46.78;16.25;;;;;;;-4.52;100.00;98545.75;5060330;28;20529;-82
2024/02/01 04:13:07;;;;;;;43.00;16.60;;;;;;;-4.67;100.00;98529.84;5056277;28;20056;-82
2024/02/01 04:15:33;;;;;;;49.45;16.33;;;;;;;-4.58;100.00;98550.84;5065234;28;20028;-83
2024/02/01 04:18:00;;;;;;;47.03;17.50;;;;;;;-4.56;100.00;98551.78;5066487;28;20028;-82
2024/02/01 04:20:26;;;;;;;45.85;17.50;;;;;;;-4.62;100.00;98554.28;5060826;28;20060;-83
2024/02/01 04:22:53;;;;;;;45.58;17.67;;;;;;;-4.56;100.00;98567.44;5063963;28;20086;-84
2024/02/01 04:25:26;;;;;;;42.85;16.38;;;;;;;-4.65;100.00;98557.75;5080571;28;20045;-84
2024/02/01 04:27:53;;;;;;;39.63;16.45;;;;;;;-4.68;100.00;98562.03;5062488;28;20047;-83
2024/02/01 04:30:19;;;;;;;59.70;17.10;;;;;;;-4.72;100.00;98558.50;5083728;28;20162;-84
2024/02/01 04:32:45;;;;;;;56.50;19.73;;;;;;;-4.80;100.00;98548.81;5067332;28;20036;-82
2024/02/01 04:35:14;;;;;;;64.55;24.35;;;;;;;-4.74;100.00;98554.13;5062865;28;20479;-84
2024/02/01 04:37:40;;;;;;;60.30;22.10;;;;;;;-4.82;100.00;98540.09;5055415;28;20428;-83
2024/02/01 04:40:11;;;;;;;33.53;15.52;;;;;;;-4.77;100.00;98569.75;5067174;28;20482;-84
2024/02/01 04:42:37;;;;;;;60.95;20.83;;;;;;;-4.87;100.00;98560.91;5059389;28;20028;-83
2024/02/01 04:45:04;;;;;;;58.63;24.58;;;;;;;-4.96;100.00;98546.00;5067434;28;20048;-81
2024/02/01 04:47:34;;;;;;;57.47;20.98;;;;;;;-4.97;100.00;98549.44;5086569;28;20028;-83
2024/02/01 04:50:00;;;;;;;46.63;19.13;;;;;;;-5.04;100.00;98539.78;5068365;28;20060;-83
2024/02/01 04:52:26;;;;;;;59.65;23.40;;;;;;;-5.08;100.00;98543.22;5089875;28;20107;-83
2024/02/01 04:54:53;;;;;;;51.22;17.08;;;;;;;-5.20;100.00;98537.78;5070812;28;20456;-83
2024/02/01 04:57:18;;;;;;;60.15;24.83;;;;;;;-5.14;100.00;98526.59;5066300;28;20028;-81
2024/02/01 04:59:44;;;;;;;41.65;15.75;;;;;;;-5.02;100.00;98558.94;5062728;28;20119;-83
2024/02/01 05:02:11;;;;;;;36.15;14.38;;;;;;;-5.18;100.00;98556.06;5067552;28;20028;-83
2024/02/01 05:04:37;;;;;;;40.53;18.50;;;;;;;-5.19;100.00;98555.19;5062090;28;20474;-84
2024/02/01 05:07:05;;;;;;;29.27;13.80;;;;;;;-5.21;100.00;98551.69;5058219;28;20032;-87
2024/02/01 05:09:37;;;;;;;30.45;11.25;;;;;;;-5.27;100.00;98529.84;5056863;28;20120;-87
2024/02/01 05:12:03;;;;;;;34.55;12.82;;;;;;;-5.21;100.00;98546.47;5055934;28;20115;-86
2024/02/01 05:14:29;;;;;;;32.45;13.25;;;;;;;-5.19;100.00;98549.09;5055514;28;20029;-87
2024/02/01 05:16:54;;;;;;;35.42;13.73;;;;;;;-5.22;100.00;98529.06;5057653;28;20032;-84
2024/02/01 05:19:21;;;;;;;36.90;13.57;;;;;;;-5.11;100.00;98537.94;5056170;28;20109;-84
2024/02/01 05:21:47;;;;;;;22.90;11.00;;;;;;;-5.25;100.00;98533.34;5071194;28;20089;-80
2024/02/01 05:24:13;;;;;;;19.27;10.02;;;;;;;-5.38;100.00;98536.63;5073385;28;20034;-79
2024/02/01 05:26:52;;;;;;;39.35;16.48;;;;;;;-5.33;100.00;98537.56;5070736;28;20040;-79
2024/02/01 05:29:18;;;;;;;59.95;22.05;;;;;;;-5.16;100.00;98536.97;5065826;28;20463;-81
2024/02/01 05:31:47;;;;;;;68.93;23.63;;;;;;;-5.09;100.00;98536.22;5057624;28;20142;-82
2024/02/01 05:34:16;;;;;;;55.33;23.90;;;;;;;-5.05;100.00;98522.41;5068894;28;20067;-80
2024/02/01 05:36:46;;;;;;;56.80;22.45;;;;;;;-4.97;100.00;98525.09;5073121;28;20036;-81
2024/02/01 05:39:24;;;;;;;57.38;22.25;;;;;;;-5.01;100.00;98518.94;5060593;28;20607;-81
2024/02/01 05:41:57;;;;;;;57.78;24.25;;;;;;;-4.98;100.00;98523.34;5062997;28;20484;-82
2024/02/01 05:44:24;;;;;;;68.47;24.25;;;;;;;-4.92;100.00;98519.09;5069471;28;20093;-82
2024/02/01 05:46:54;;;;;;;64.05;23.27;;;;;;;-4.85;100.00;98519.16;5052901;28;20020;-81
2024/02/01 05:49:21;;;;;;;82.15;30.02;;;;;;;-4.83;100.00;98513.16;5060775;28;20027;-81
2024/02/01 05:51:51;;;;;;;89.57;35.78;;;;;;;-4.84;100.00;98518.31;5069654;28;20133;-81
2024/02/01 05:54:18;;;;;;;103.68;38.13;;;;;;;-4.74;100.00;98518.47;5059010;28;20028;-81
2024/02/01 05:56:44;;;;;;;104.80;40.35;;;;;;;-4.66;100.00;98521.19;5078867;28;20035;-81
2024/02/01 05:59:14;;;;;;;118.43;43.45;;;;;;;-4.62;100.00;98517.75;5060862;28;20074;-80
2024/02/01 06:01:46;;;;;;;127.90;43.22;;;;;;;-4.57;100.00;98530.00;5063388;28;20133;-80
2024/02/01 06:04:12;;;;;;;118.15;40.95;;;;;;;-4.53;100.00;98528.31;5072651;28;20121;-80
2024/02/01 06:06:39;;;;;;;112.57;43.30;;;;;;;-4.49;100.00;98535.34;5057249;28;20081;-81
2024/02/01 06:09:12;;;;;;;105.63;39.53;;;;;;;-4.36;100.00;98539.84;5071403;28;20479;-81
2024/02/01 06:11:39;;;;;;;100.60;37.75;;;;;;;-4.39;100.00;98526.75;5055820;28;20032;-81
2024/02/01 06:14:05;;;;;;;118.00;42.92;;;;;;;-4.21;100.00;98545.25;5059902;28;20028;-81
2024/02/01 06:16:30;;;;;;;114.70;42.78;;;;;;;-4.40;100.00;98509.34;5056383;28;20040;-82
2024/02/01 06:18:56;;;;;;;137.77;49.97;;;;;;;-4.14;100.00;98540.97;5052616;28;20453;-81
2024/02/01 06:21:22;;;;;;;140.77;49.88;;;;;;;-4.11;100.00;98539.28;5060595;28;20039;-81
2024/02/01 06:23:47;;;;;;;127.38;49.38;;;;;;;-4.06;100.00;98536.72;5062467;28;20142;-82
2024/02/01 06:26:27;;;;;;;132.88;47.28;;;;;;;-3.97;100.00;98537.69;5058548;28;20116;-80
2024/02/01 06:29:28;;;;;;;132.13;47.28;;;;;;;-4.09;100.00;98493.16;5078964;28;20036;-83
2024/02/01 06:31:54;;;;;;;109.78;43.15;;;;;;;-4.25;100.00;98457.31;5077845;28;20046;-83
2024/02/01 06:34:38;;;;;;;124.43;46.05;;;;;;;-3.75;100.00;98504.81;5060944;28;20024;-81
2024/02/01 06:37:07;;;;;;;140.57;48.92;;;;;;;-2.51;100.00;98508.31;5054808;28;20457;-82
2024/02/01 06:44:46;;;;;;;151.57;53.78;;;;;;;1.59;100.00;98477.16;5089371;28;20101;-73
2024/02/01 06:47:12;;;;;;;118.03;45.88;;;;;;;2.45;100.00;98454.00;5071529;28;20019;-74
2024/02/01 06:50:00;;;;;;;120.03;43.10;;;;;;;2.90;88.95;98444.44;5087337;28;20051;-74
2024/02/01 06:52:35;;;;;;;109.82;45.75;;;;;;;3.89;78.46;98435.47;5089622;28;20517;-80
2024/02/01 07:00:50;;;;;;;114.05;49.90;;;;;;;5.01;63.93;98401.91;5056837;28;20035;-79
2024/02/01 07:08:26;;;;;;;89.13;41.03;;;;;;;4.74;62.77;98413.19;5081537;28;20028;-78
2024/02/01 07:11:01;;;;;;;89.32;39.13;;;;;;;4.03;63.50;98415.75;5086720;28;20438;-77
2024/02/01 07:13:47;;;;;;;87.95;36.38;;;;;;;4.15;66.20;98411.97;5064927;28;20085;-77
2024/02/01 07:16:57;;;;;;;98.30;35.40;;;;;;;5.03;63.25;98393.88;5072189;28;20028;-77
2024/02/01 07:20:14;;;;;;;71.00;31.45;;;;;;;6.40;58.91;98397.84;5069391;28;20040;-77
2024/02/01 07:22:03;;;;;;;82.28;35.22;;;;;;;6.33;57.20;98379.50;5079051;28;20043;-77
2024/02/01 07:57:36;;;;;;;124.50;59.42;;;;;;;9.24;50.89;98337.28;5091776;28;20051;-74
2024/02/01 08:00:03;;;;;;;118.25;57.75;;;;;;;9.59;49.61;98327.72;5074815;28;20138;-76
2024/02/01 08:07:57;;;;;;;117.55;55.92;;;;;;;10.50;44.07;98288.63;5090950;28;20080;-75
2024/02/01 08:10:24;;;;;;;113.63;51.78;;;;;;;10.14;45.10;98294.84;5074096;28;20036;-75
2024/02/01 08:12:50;;;;;;;108.45;55.17;;;;;;;10.28;45.74;98295.03;5055622;28;20032;-76
2024/02/01 08:15:18;;;;;;;106.68;51.35;;;;;;;10.81;44.39;98296.84;5076207;28;20522;-75
2024/02/01 08:17:52;;;;;;;100.20;51.88;;;;;;;10.17;46.18;98300.03;5064601;28;20070;-75
2024/02/01 08:20:19;;;;;;;96.80;50.58;;;;;;;10.71;45.06;98292.88;5085713;28;20439;-76
2024/02/01 08:22:45;;;;;;;99.20;49.67;;;;;;;10.82;45.30;98293.22;5062127;28;20115;-77
2024/02/01 08:25:12;;;;;;;103.78;48.75;;;;;;;10.99;44.81;98284.31;5091607;28;20048;-76
2024/02/01 08:27:48;;;;;;;107.90;49.78;;;;;;;11.80;43.75;98281.75;5072710;28;20051;-76
2024/02/01 08:30:18;;;;;;;86.88;44.10;;;;;;;11.73;43.77;98283.03;5079143;28;20039;-77
2024/02/01 08:32:44;;;;;;;89.25;46.30;;;;;;;11.92;43.06;98284.63;5070795;28;20024;-76
2024/02/01 08:35:10;;;;;;;93.15;44.50;;;;;;;12.30;42.13;98273.56;5069720;28;20097;-78
2024/02/01 08:37:39;;;;;;;85.57;46.28;;;;;;;12.77;41.87;98273.44;5068398;28;20086;-75
2024/02/01 08:40:16;;;;;;;152.15;64.22;;;;;;;12.91;40.26;98247.53;5087508;28;20029;-75
2024/02/01 08:42:46;;;;;;;107.57;56.67;;;;;;;12.98;39.41;98245.34;5070515;28;20036;-75
2024/02/01 08:45:13;;;;;;;112.70;57.92;;;;;;;13.17;39.74;98248.66;5071485;28;20017;-75
2024/02/01 08:47:43;;;;;;;108.03;56.70;;;;;;;12.88;39.69;98254.91;5085130;28;20473;-75
2024/02/01 08:50:10;;;;;;;110.40;58.03;;;;;;;13.08;39.56;98246.53;5073227;28;20020;-75
2024/02/01 08:52:46;;;;;;;105.35;51.33;;;;;;;13.78;38.45;98247.53;5073588;28;20450;-75
2024/02/01 08:55:13;;;;;;;100.97;51.38;;;;;;;13.78;38.21;98252.91;5073829;28;20048;-73
2024/02/01 08:57:46;;;;;;;105.13;52.92;;;;;;;13.92;38.69;98252.91;5073282;28;20024;-75
2024/02/01 09:00:21;;;;;;;;;;;;;;;13.51;38.38;98256.38;5090611;28;20093;-74
2024/02/01 09:03:02;;;;;;;91.38;45.92;;;;;;;13.70;38.10;98242.63;5074723;28;20449;-74
2024/02/01 09:05:38;;;;;;;76.43;37.10;;;;;;;12.84;39.39;98245.28;5090424;28;20019;-74
2024/02/01 09:08:35;;;;;;;84.25;37.00;;;;;;;11.97;40.50;98248.66;5067328;28;20038;-75
2024/02/01 09:11:09;;;;;;;73.70;39.17;;;;;;;12.77;39.97;98246.59;5054020;28;20032;-74
2024/02/01 09:13:35;;;;;;;65.90;32.13;;;;;;;13.46;38.52;98228.06;5054331;28;20480;-75
2024/02/01 09:16:02;;;;;;;59.45;27.88;;;;;;;13.64;37.91;98223.34;5052732;28;20476;-74
2024/02/01 09:18:28;;;;;;;49.25;25.38;;;;;;;13.98;36.14;98212.16;5071172;28;20492;-74
2024/02/01 09:20:53;;;;;;;46.95;21.30;;;;;;;14.70;34.73;98197.50;5079900;28;20020;-74
2024/02/01 09:23:19;;;;;;;33.10;15.55;;;;;;;14.83;32.91;98191.16;5074258;28;20035;-85
2024/02/01 09:25:45;;;;;;;41.85;22.15;;;;;;;14.73;33.65;98184.69;5067679;28;20142;-75
2024/02/01 09:28:14;;;;;;;171.77;41.08;;;;;;;14.55;34.31;98189.47;5075150;28;20036;-74
2024/02/01 09:30:45;;;;;;;44.97;22.13;;;;;;;14.95;33.52;98179.53;5074682;28;20409;-74
2024/02/01 09:33:19;;;;;;;52.15;21.70;;;;;;;15.59;32.91;98164.22;5086804;28;20073;-75
2024/02/01 09:35:45;;;;;;;43.45;22.77;;;;;;;17.16;31.31;98152.22;5061630;28;20093;-74
2024/02/01 09:38:11;;;;;;;53.53;23.27;;;;;;;17.18;30.80;98150.25;5066709;28;20036;-75
2024/02/01 09:40:43;;;;;;;45.70;26.35;;;;;;;17.52;30.76;98148.44;5062891;28;20062;-74
2024/02/01 09:43:21;;;;;;;43.03;23.33;;;;;;;17.06;30.89;98139.53;5070472;28;20551;-76
2024/02/01 09:45:51;;;;;;;34.35;21.00;;;;;;;16.92;30.53;98131.66;5071081;28;20456;-75
2024/02/01 09:48:18;;;;;;;42.97;21.48;;;;;;;17.29;30.08;98146.69;5066963;28;20381;-76
2024/02/01 09:50:55;;;;;;;38.25;20.58;;;;;;;16.53;30.31;98136.44;5071372;28;20411;-75
2024/02/01 09:53:22;;;;;;;21.50;11.30;;;;;;;15.95;29.04;98122.91;5069778;28;20032;-74
2024/02/01 09:55:58;;;;;;;19.63;11.40;;;;;;;15.37;29.03;98119.03;5088049;28;20039;-75
2024/02/01 09:58:28;;;;;;;28.85;14.98;;;;;;;16.43;29.07;98116.50;5068702;28;20051;-74
2024/02/01 10:00:54;;;;;;;36.08;19.00;;;;;;;17.05;28.87;98116.19;5064661;28;20043;-75
2024/02/01 10:03:23;;;;;;;34.10;19.35;;;;;;;17.76;28.51;98111.28;5072994;28;20024;-74
2024/02/01 10:05:50;;;;;;;43.92;20.63;;;;;;;18.28;27.93;98105.13;5055168;28;20399;-75
2024/02/01 10:08:16;;;;;;;40.17;20.92;;;;;;;18.26;27.83;98098.97;5086260;28;20514;-74
2024/02/01 10:10:45;;;;;;;39.58;20.63;;;;;;;17.96;27.80;98095.25;5087011;28;20024;-75
2024/02/01 10:13:16;;;;;;;35.10;20.45;;;;;;;18.27;27.74;98091.72;5053807;28;20028;-74
2024/02/01 10:15:46;;;;;;;40.65;21.52;;;;;;;18.04;27.51;98069.25;5069481;28;20039;-76
2024/02/01 10:18:21;;;;;;;41.28;21.95;;;;;;;18.78;27.30;98092.72;5067689;28;20032;-74
2024/02/01 10:20:54;;;;;;;42.45;21.35;;;;;;;19.35;26.63;98080.44;5078825;28;20110;-75
2024/02/01 10:23:20;;;;;;;44.78;21.55;;;;;;;18.76;26.69;98078.44;5086831;28;20446;-76
2024/02/01 10:25:47;;;;;;;44.33;21.70;;;;;;;19.11;27.37;98067.22;5076928;28;20117;-75
2024/02/01 10:28:17;;;;;;;38.72;23.02;;;;;;;19.82;26.18;98058.06;5065958;28;20480;-75
2024/02/01 10:30:43;;;;;;;36.35;21.30;;;;;;;19.54;25.99;98058.84;5069868;28;20109;-75
2024/02/01 10:33:19;;;;;;;39.05;21.25;;;;;;;18.68;26.45;98051.13;5079629;28;20033;-76
2024/02/01 10:35:51;;;;;;;40.92;22.63;;;;;;;18.85;26.56;98049.66;5060543;28;20118;-76
2024/02/01 10:38:21;;;;;;;41.20;22.63;;;;;;;19.34;26.22;98028.06;5086133;28;20412;-75
2024/02/01 10:40:53;;;;;;;45.38;23.00;;;;;;;19.83;25.59;98026.34;5074950;28;20031;-75
2024/02/01 10:43:29;;;;;;;37.08;21.67;;;;;;;20.14;25.57;98014.38;5085509;28;20066;-76
2024/02/01 10:46:06;;;;;;;43.05;20.77;;;;;;;19.65;25.74;98012.59;5073026;28;20031;-76
2024/02/01 10:48:51;;;;;;;30.83;18.77;;;;;;;19.96;25.27;98005.22;5072537;28;20032;-75
2024/02/01 10:51:17;;;;;;;40.63;21.92;;;;;;;20.35;25.46;97996.09;5073753;28;20070;-75
2024/02/01 10:53:44;;;;;;;35.38;20.67;;;;;;;20.26;25.02;97998.81;5058195;28;20064;-74
2024/02/01 10:56:14;;;;;;;37.10;20.45;;;;;;;20.43;25.17;97993.47;5092291;28;20107;-76
2024/02/01 10:59:06;;;;;;;39.42;22.00;;;;;;;20.45;25.48;97985.19;5090372;28;20024;-75
2024/02/01 11:01:33;;;;;;;33.28;18.25;;;;;;;19.80;24.80;97969.63;5068704;28;20040;-76
2024/02/01 11:04:00;;;;;;;31.50;16.67;;;;;;;18.69;24.94;97968.84;5072649;28;20442;-76
2024/02/01 11:06:27;;;;;;;26.40;15.73;;;;;;;18.67;25.36;97962.66;5073548;28;20133;-75
2024/02/01 11:08:57;;;;;;;29.92;16.35;;;;;;;19.50;24.80;97956.16;5092375;28;20032;-74
2024/02/01 11:11:30;;;;;;;30.60;16.92;;;;;;;19.89;24.48;97950.63;5084879;28;20549;-76
2024/02/01 11:14:10;;;;;;;49.83;24.42;;;;;;;20.13;24.99;97957.44;5081256;28;20116;-76
2024/02/01 11:16:42;;;;;;;40.78;23.40;;;;;;;19.65;25.50;97958.31;5080655;28;20024;-75
2024/02/01 11:19:12;;;;;;;55.33;26.90;;;;;;;19.44;26.44;97950.25;5072217;28;20450;-75
2024/02/01 11:21:54;;;;;;;42.35;23.98;;;;;;;19.62;26.05;97953.16;5072695;28;20031;-75
2024/02/01 11:24:26;;;;;;;38.60;21.20;;;;;;;19.75;26.06;97940.16;5076434;28;20042;-76
2024/02/01 11:27:07;;;;;;;36.08;20.38;;;;;;;19.88;25.93;97946.16;5073560;28;20511;-76
2024/02/01 11:29:37;;;;;;;37.92;22.27;;;;;;;20.81;24.94;97946.31;5080354;28;20032;-75
2024/02/01 11:32:05;;;;;;;38.58;21.70;;;;;;;21.70;24.41;97935.69;5065358;28;21151;-75
2024/02/01 11:34:33;;;;;;;35.38;20.17;;;;;;;22.03;24.24;97932.28;5072702;28;20036;-76
2024/02/01 11:36:59;;;;;;;33.88;18.40;;;;;;;23.11;24.07;97919.91;5092975;28;20459;-76
2024/02/01 11:39:28;;;;;;;31.92;17.48;;;;;;;22.46;24.04;97920.53;5086349;28;20079;-75
2024/02/01 11:41:55;;;;;;;24.52;14.02;;;;;;;22.49;23.79;97912.88;5071621;28;20036;-75
2024/02/01 11:44:23;;;;;;;13.63;8.70;;;;;;;22.64;23.34;97913.16;5055743;28;20440;-73
2024/02/01 11:46:51;;;;;;;19.48;11.93;;;;;;;22.30;23.22;97901.34;5055612;28;20119;-75
2024/02/01 11:49:22;;;;;;;17.55;9.68;;;;;;;22.22;22.79;97896.69;5072456;28;20062;-75
2024/02/01 11:52:32;;;;;;;19.80;9.63;;;;;;;22.56;22.50;97892.16;5052557;28;20036;-75
2024/02/01 11:54:58;;;;;;;13.95;7.82;;;;;;;21.74;22.44;97880.75;5077599;28;20024;-75
2024/02/01 11:57:30;;;;;;;16.63;7.15;;;;;;;21.69;21.96;97874.91;5070296;28;20454;-74
2024/02/01 11:59:56;;;;;;;18.45;8.07;;;;;;;22.78;21.09;97874.41;5069165;28;20035;-74
2024/02/01 12:02:24;;;;;;;16.17;8.48;;;;;;;23.14;20.84;97862.25;5051935;28;20040;-75
2024/02/01 12:04:50;;;;;;;15.65;9.35;;;;;;;22.39;21.29;97873.97;5068639;28;20035;-74
2024/02/01 12:07:20;;;;;;;18.23;9.88;;;;;;;23.62;20.86;97857.97;5068385;28;20032;-75
2024/02/01 12:09:47;;;;;;;16.63;10.75;;;;;;;23.34;20.40;97848.31;5072519;28;20148;-75
2024/02/01 12:12:18;;;;;;;12.93;8.55;;;;;;;23.75;20.12;97856.44;5068435;28;20036;-74
2024/02/01 12:14:43;;;;;;;9.82;5.97;;;;;;;23.66;19.53;97842.94;5068660;28;20081;-75